createdAt,value
2019-01-27T12:58:11.213Z,7.53
2019-01-27T13:00:44.394Z,7.55
2019-01-27T13:03:14.149Z,7.45
2019-01-27T13:05:43.940Z,7.46
2019-01-27T13:08:13.683Z,7.25
2019-01-27T13:10:43.442Z,7.16
2019-01-27T13:13:13.252Z,7.10
2019-01-27T13:15:42.965Z,7.13
2019-01-27T13:18:12.700Z,7.14
2019-01-27T13:20:42.452Z,7.15
2019-01-27T13:23:12.212Z,7.14
2019-01-27T13:25:42.895Z,7.17
2019-01-27T13:28:12.631Z,7.13
2019-01-27T13:30:42.562Z,7.06
2019-01-27T13:33:12.307Z,6.99
2019-01-27T13:35:42.096Z,6.92
2019-01-27T13:38:11.823Z,6.97
2019-01-27T13:40:41.609Z,6.96
2019-01-27T13:43:11.353Z,6.87
2019-01-27T13:45:41.075Z,6.88
2019-01-27T13:48:10.827Z,6.89
2019-01-27T13:50:40.547Z,6.84
2019-01-27T13:53:10.293Z,6.86
2019-01-27T13:55:40.065Z,6.87
2019-01-27T13:58:09.806Z,6.85
2019-01-27T14:00:41.726Z,6.85
2019-01-27T14:03:11.448Z,6.88
2019-01-27T14:05:41.278Z,6.81
2019-01-27T14:08:10.991Z,6.69
2019-01-27T14:10:40.739Z,6.65
2019-01-27T14:13:10.574Z,6.58
2019-01-27T14:15:40.602Z,6.60
2019-01-27T14:18:11.394Z,6.48
2019-01-27T14:20:41.129Z,6.39
2019-01-27T14:23:10.882Z,6.33
2019-01-27T14:25:41.121Z,6.28
2019-01-27T14:28:12.153Z,6.29
2019-01-27T14:30:44.502Z,6.27
2019-01-27T14:33:14.216Z,6.29
2019-01-27T14:35:43.967Z,6.27
2019-01-27T14:38:13.708Z,6.20
2019-01-27T14:40:43.661Z,6.15
2019-01-27T14:43:13.377Z,6.16
2019-01-27T14:45:43.147Z,6.19
2019-01-27T14:48:12.956Z,6.17
2019-01-27T14:50:47.859Z,6.14
2019-01-27T14:53:17.590Z,6.10
2019-01-27T14:55:47.403Z,6.08
2019-01-27T14:58:17.139Z,6.08
2019-01-27T15:00:46.885Z,6.02
2019-01-27T15:03:16.677Z,6.02
2019-01-27T15:05:46.427Z,6.01
2019-01-27T15:08:16.154Z,5.94
2019-01-27T15:10:45.900Z,5.99
2019-01-27T15:13:15.619Z,5.98
2019-01-27T15:15:45.431Z,5.95
2019-01-27T15:18:15.230Z,5.92
2019-01-27T15:20:48.430Z,5.93
2019-01-27T15:23:18.150Z,5.95
2019-01-27T15:25:47.890Z,5.96
2019-01-27T15:28:17.630Z,5.96
2019-01-27T15:30:47.397Z,5.99
2019-01-27T15:33:17.130Z,6.07
2019-01-27T15:35:46.850Z,6.04
2019-01-27T15:38:17.745Z,6.04
2019-01-27T15:40:47.568Z,6.06
2019-01-27T15:43:17.315Z,6.05
2019-01-27T15:45:48.021Z,6.10
2019-01-27T15:48:17.802Z,6.08
2019-01-27T15:50:47.540Z,6.09
2019-01-27T15:53:17.260Z,6.06
2019-01-27T15:55:47.013Z,6.06
2019-01-27T15:58:16.784Z,6.10
2019-01-27T16:00:46.535Z,6.02
2019-01-27T16:03:16.268Z,5.97
2019-01-27T16:05:46.056Z,5.95
2019-01-27T16:08:15.777Z,5.97
2019-01-27T16:10:45.533Z,5.96
2019-01-27T16:13:15.256Z,5.92
2019-01-27T16:15:45.019Z,5.80
2019-01-27T16:18:14.761Z,5.88
2019-01-27T16:20:44.526Z,5.85
2019-01-27T16:23:15.909Z,5.76
2019-01-27T16:25:45.651Z,5.78
2019-01-27T16:28:15.457Z,5.80
2019-01-27T16:30:55.533Z,5.80
2019-01-27T16:33:36.185Z,5.74
2019-01-27T16:36:05.942Z,5.71
2019-01-27T16:38:35.782Z,5.75
2019-01-27T16:41:05.508Z,5.75
2019-01-27T16:43:35.253Z,5.71
2019-01-27T16:46:04.995Z,5.74
2019-01-27T16:48:52.783Z,5.79
2019-01-27T16:51:22.557Z,5.74
2019-01-27T16:53:52.321Z,5.75
2019-01-27T16:56:22.099Z,5.78
2019-01-27T16:58:51.847Z,5.73
2019-01-27T17:01:21.633Z,5.75
2019-01-27T17:03:51.370Z,5.76
2019-01-27T17:06:21.141Z,5.76
2019-01-27T17:08:50.874Z,5.75
2019-01-27T17:11:20.614Z,5.69
2019-01-27T17:13:50.412Z,5.61
2019-01-27T17:16:20.226Z,5.57
2019-01-27T17:18:50.040Z,5.59
2019-01-27T17:21:19.886Z,5.65
2019-01-27T17:23:49.700Z,5.69
2019-01-27T17:26:19.468Z,5.48
2019-01-27T17:28:49.192Z,5.41
2019-01-27T17:31:18.950Z,5.32
2019-01-27T17:33:48.737Z,5.22
2019-01-27T17:36:18.476Z,5.15
2019-01-27T17:38:48.257Z,5.08
2019-01-27T17:41:18.018Z,5.14
2019-01-27T17:43:47.763Z,5.19
2019-01-27T17:46:17.525Z,5.16
2019-01-27T17:48:47.279Z,5.18
2019-01-27T17:51:17.037Z,5.19
2019-01-27T17:53:48.120Z,5.04
2019-01-27T17:56:18.414Z,5.07
2019-01-27T17:59:11.467Z,5.09
2019-01-27T18:01:43.713Z,5.08
2019-01-27T18:04:27.114Z,4.99
2019-01-27T18:07:04.387Z,4.86
2019-01-27T18:09:38.668Z,4.87
2019-01-27T18:12:10.075Z,4.77
2019-01-27T18:14:40.182Z,4.84
2019-01-27T18:17:09.995Z,4.80
2019-01-27T18:19:39.710Z,4.85
2019-01-27T18:22:09.470Z,4.85
2019-01-27T18:24:40.473Z,4.89
2019-01-27T18:27:10.239Z,4.92
2019-01-27T18:29:40.065Z,4.83
2019-01-27T18:32:09.793Z,4.73
2019-01-27T18:34:39.682Z,4.64
2019-01-27T18:37:09.496Z,4.57
2019-01-27T18:39:39.226Z,4.53
2019-01-27T18:42:09.054Z,4.55
2019-01-27T18:44:38.774Z,4.43
2019-01-27T18:47:08.559Z,4.45
2019-01-27T18:49:38.303Z,4.57
2019-01-27T18:52:08.059Z,4.41
2019-01-27T18:54:58.663Z,4.35
2019-01-27T18:57:30.942Z,4.29
2019-01-27T19:00:02.324Z,4.29
2019-01-27T19:02:36.312Z,4.27
2019-01-27T19:05:13.636Z,4.27
2019-01-27T19:07:45.010Z,4.31
2019-01-27T19:10:16.401Z,4.21
2019-01-27T19:12:50.791Z,4.19
2019-01-27T19:15:38.204Z,4.15
2019-01-27T19:18:25.568Z,4.16
2019-01-27T19:20:56.958Z,4.12
2019-01-27T19:23:30.231Z,4.17
2019-01-27T19:26:10.648Z,4.20
2019-01-27T19:28:42.115Z,4.21
2019-01-27T19:31:22.554Z,4.25
2019-01-27T19:33:59.977Z,4.29
2019-01-27T19:36:37.216Z,4.22
2019-01-27T19:39:13.140Z,4.19
2019-01-27T19:41:50.761Z,4.22
2019-01-27T19:44:22.191Z,4.23
2019-01-27T19:46:56.239Z,4.14
2019-01-27T19:49:27.714Z,4.19
2019-01-27T19:51:59.100Z,4.21
2019-01-27T19:54:46.945Z,4.18
2019-01-27T19:57:33.603Z,4.28
2019-01-27T20:00:13.115Z,4.21
2019-01-27T20:02:44.575Z,4.23
2019-01-27T20:05:15.996Z,4.19
2019-01-27T20:07:59.462Z,4.16
2019-01-27T20:10:46.033Z,4.24
2019-01-27T20:13:23.535Z,4.28
2019-01-27T20:16:09.858Z,4.24
2019-01-27T20:18:53.256Z,4.19
2019-01-27T20:21:33.227Z,4.12
2019-01-27T20:24:16.765Z,4.08
2019-01-27T20:26:57.363Z,4.21
2019-01-27T20:29:34.787Z,4.12
2019-01-27T20:32:08.872Z,4.19
2019-01-27T20:34:43.232Z,4.09
2019-01-27T20:37:14.607Z,4.15
2019-01-27T20:39:46.023Z,4.17
2019-01-27T20:42:22.826Z,4.11
2019-01-27T20:44:54.224Z,4.07
2019-01-27T20:47:25.587Z,4.11
2019-01-27T20:49:56.983Z,4.02
2019-01-27T20:52:34.012Z,4.01
2019-01-27T20:55:12.501Z,3.92
2019-01-27T20:57:43.879Z,3.86
2019-01-27T21:00:20.746Z,3.88
2019-01-27T21:03:08.659Z,3.84
2019-01-27T21:05:48.986Z,3.86
2019-01-27T21:08:32.244Z,3.77
2019-01-27T21:11:12.730Z,3.75
2019-01-27T21:13:50.045Z,3.71
2019-01-27T21:16:30.281Z,3.67
2019-01-27T21:19:19.839Z,3.61
2019-01-27T21:21:49.595Z,3.58
2019-01-27T21:24:19.360Z,3.58
2019-01-27T21:26:49.133Z,3.57
2019-01-27T21:29:18.864Z,3.51
2019-01-27T21:31:48.673Z,3.48
2019-01-27T21:34:18.392Z,3.50
2019-01-27T21:36:48.118Z,3.52
2019-01-27T21:39:17.847Z,3.56
2019-01-27T21:41:47.676Z,3.59
2019-01-27T21:44:17.451Z,3.60
2019-01-27T21:46:47.215Z,3.59
2019-01-27T21:49:18.572Z,3.50
2019-01-27T21:51:48.418Z,3.47
2019-01-27T21:54:18.224Z,3.42
2019-01-27T21:56:48.048Z,3.37
2019-01-27T21:59:17.785Z,3.34
2019-01-27T22:01:47.549Z,3.37
2019-01-27T22:04:17.347Z,3.41
2019-01-27T22:06:47.133Z,3.42
2019-01-27T22:09:16.958Z,3.40
2019-01-27T22:11:46.804Z,3.43
2019-01-27T22:14:17.651Z,3.49
2019-01-27T22:16:47.429Z,3.48
2019-01-27T22:19:17.167Z,3.43
2019-01-27T22:21:46.997Z,3.32
2019-01-27T22:24:16.737Z,3.34
2019-01-27T22:26:46.710Z,3.30
2019-01-27T22:29:16.446Z,3.33
2019-01-27T22:31:46.213Z,3.38
2019-01-27T22:34:16.002Z,3.38
2019-01-27T22:36:45.766Z,3.36
2019-01-27T22:39:15.499Z,3.40
2019-01-27T22:41:45.263Z,3.43
2019-01-27T22:44:14.965Z,3.41
2019-01-27T22:46:44.678Z,3.37
2019-01-27T22:49:14.438Z,3.38
2019-01-27T22:51:45.815Z,3.34
2019-01-27T22:54:15.541Z,3.41
2019-01-27T22:56:46.362Z,3.40
2019-01-27T22:59:16.092Z,3.43
2019-01-27T23:01:45.917Z,3.40
2019-01-27T23:04:15.648Z,3.47
2019-01-27T23:06:45.400Z,3.41
2019-01-27T23:09:16.792Z,3.41
2019-01-27T23:11:46.558Z,3.44
2019-01-27T23:14:16.293Z,3.44
2019-01-27T23:16:46.052Z,3.46
2019-01-27T23:19:15.760Z,3.56
2019-01-27T23:21:45.518Z,3.53
2019-01-27T23:24:15.279Z,3.59
2019-01-27T23:26:45.085Z,3.62
2019-01-27T23:29:14.822Z,3.56
2019-01-27T23:31:44.655Z,3.60
2019-01-27T23:34:15.345Z,3.62
2019-01-27T23:36:45.098Z,3.66
2019-01-27T23:39:14.829Z,3.63
2019-01-27T23:41:44.742Z,3.65
2019-01-27T23:44:14.452Z,3.67
2019-01-27T23:46:44.216Z,3.63
2019-01-27T23:49:13.946Z,3.67
2019-01-27T23:51:43.694Z,3.69
2019-01-27T23:54:13.506Z,3.70
2019-01-27T23:56:43.250Z,3.69
2019-01-27T23:59:12.991Z,3.73
